Terminal Aerodrome Forecast
Issued by NWS Twin Cities, MN

Home | Current Version | Previous Version | Graphics & Text | Print | Product List | Glossary On
Versions: 1 2 3 4 5 6 7 8 9 10 11 12 13 14 15 16 17 18 19 20 21 22
000
FTUS43 KMPX 222335
TAFSTC
TAF
KSTC 222335Z 2300/2324 17015KT P6SM SCT150
     FM230200 18013KT P6SM FEW250 WS018/21050KT
     FM230700 19009KT P6SM BKN150
     FM231200 18005KT P6SM SCT040 BKN200
     FM231700 18006KT P6SM OVC035=

USA.gov is the U.S. government's official web portal to all federal, state and local government web resources and services.